This is the latest recevied weather packets stored in our database for station/object KC1OEK-13. If no packets are shown the sender has not sent any weather packets the latest 10 day(s).
| Time | Temp. | Humidity | Pressure | Rain* | Wind** | Luminosity | Snow |
|---|---|---|---|---|---|---|---|
| 1777469207 | 14.44° C | 58% | 1017.4 hPa | 0 mm | - | 457 W/m² | - |
| 1777468598 | 13.33° C | 59% | 1017.7 hPa | 0 mm | - | 422 W/m² | - |
| 1777468295 | 12.78° C | 59% | 1017.7 hPa | 0 mm | - | 409 W/m² | - |
| 1777467991 | 13.33° C | 59% | 1018.1 hPa | 0 mm | - | 372 W/m² | - |
| 1777465866 | 11.67° C | 65% | 1017.6 hPa | 0 mm | - | 318 W/m² | - |
| 1777465256 | 11.67° C | 68% | 1017.9 hPa | 0 mm | - | 276 W/m² | - |
| 1777463734 | 8.89° C | 81% | 1018.6 hPa | 0 mm | - | 159 W/m² | - |
| 1777462516 | 8.33° C | 83% | 1018.7 hPa | 0 mm | - | 52 W/m² | - |
| 1777462213 | 8.33° C | 83% | 1018.8 hPa | 0 mm | - | 54 W/m² | - |
| 1777461606 | 7.78° C | 85% | 1018.6 hPa | 0 mm | - | 61 W/m² | - |
| 1777461301 | 7.78° C | 85% | 1018.8 hPa | 0 mm | - | 61 W/m² | - |
| 1777460997 | 7.78° C | 86% | 1018.7 hPa | 0 mm | - | 54 W/m² | - |
| 1777460389 | 7.22° C | 87% | 1018.8 hPa | 0 mm | - | 43 W/m² | - |
| 1777459479 | 6.67° C | 88% | 1018.7 hPa | 0 mm | - | 29 W/m² | - |
| 1777459177 | 6.67° C | 88% | 1018.8 hPa | 0 mm | - | 26 W/m² | - |
| 1777458874 | 6.67° C | 89% | 1018.9 hPa | 0 mm | - | 20 W/m² | - |
| 1777458571 | 6.67° C | 89% | 1018.9 hPa | 0 mm | - | 18 W/m² | - |
| 1777458267 | 6.67° C | 89% | 1018.9 hPa | 0 mm | - | 14 W/m² | - |
| 1777457963 | 6.11° C | 89% | 1019.2 hPa | 0 mm | - | 13 W/m² | - |
| 1777457659 | 6.11° C | 89% | 1018.9 hPa | 0 mm | - | 11 W/m² | - |
| 1777457358 | 6.11° C | 89% | 1018.7 hPa | 0 mm | - | 9 W/m² | - |
| 1777457055 | 6.11° C | 89% | 1018.8 hPa | 0 mm | - | 7 W/m² | - |
| 1777456750 | 6.11° C | 89% | 1018.8 hPa | 0 mm | - | 5 W/m² | - |
| 1777455539 | 6.11° C | 89% | 1018.6 hPa | 0 mm | - | 0 W/m² | - |
| 1777455236 | 6.11° C | 88% | 1018.8 hPa | 0 mm | - | 0 W/m² | - |
* Rain latest hour (hover to see other rain measurements)
** Current wind speed in m/s (hover to see current wind gust speed)